sensor_id;sensor_type;location;lat;lon;timestamp;temperature;humidity
8130;DHT22;4106;52.532;13.408;2022-07-23T00:02:11;18.30;90.50
8130;DHT22;4106;52.532;13.408;2022-07-23T00:04:38;18.20;90.50
8130;DHT22;4106;52.532;13.408;2022-07-23T00:07:06;18.20;90.40
8130;DHT22;4106;52.532;13.408;2022-07-23T00:09:33;18.20;90.30
8130;DHT22;4106;52.532;13.408;2022-07-23T00:12:01;18.10;90.50
8130;DHT22;4106;52.532;13.408;2022-07-23T00:14:29;18.10;90.50
8130;DHT22;4106;52.532;13.408;2022-07-23T00:16:56;18.10;90.30
8130;DHT22;4106;52.532;13.408;2022-07-23T00:19:24;18.00;90.50
8130;DHT22;4106;52.532;13.408;2022-07-23T00:21:52;18.00;90.60
8130;DHT22;4106;52.532;13.408;2022-07-23T00:24:20;18.10;90.60
8130;DHT22;4106;52.532;13.408;2022-07-23T00:26:48;18.10;90.30
8130;DHT22;4106;52.532;13.408;2022-07-23T00:29:15;18.10;90.30
8130;DHT22;4106;52.532;13.408;2022-07-23T00:31:42;18.10;90.10
8130;DHT22;4106;52.532;13.408;2022-07-23T00:34:09;18.10;90.10
8130;DHT22;4106;52.532;13.408;2022-07-23T00:36:36;18.00;90.10
8130;DHT22;4106;52.532;13.408;2022-07-23T00:39:04;18.00;90.10
8130;DHT22;4106;52.532;13.408;2022-07-23T00:41:31;18.00;90.00
8130;DHT22;4106;52.532;13.408;2022-07-23T00:44:17;18.00;89.90
8130;DHT22;4106;52.532;13.408;2022-07-23T00:46:47;18.10;90.00
8130;DHT22;4106;52.532;13.408;2022-07-23T00:49:13;18.00;90.10
8130;DHT22;4106;52.532;13.408;2022-07-23T00:51:41;18.00;90.20
8130;DHT22;4106;52.532;13.408;2022-07-23T00:54:08;17.90;90.40
8130;DHT22;4106;52.532;13.408;2022-07-23T00:56:36;17.90;90.50
8130;DHT22;4106;52.532;13.408;2022-07-23T00:59:05;17.90;90.60
8130;DHT22;4106;52.532;13.408;2022-07-23T01:01:32;17.80;90.80
8130;DHT22;4106;52.532;13.408;2022-07-23T01:04:00;17.70;91.00
8130;DHT22;4106;52.532;13.408;2022-07-23T01:06:27;17.70;91.00
8130;DHT22;4106;52.532;13.408;2022-07-23T01:08:55;17.70;91.20
8130;DHT22;4106;52.532;13.408;2022-07-23T01:11:22;17.70;91.40
8130;DHT22;4106;52.532;13.408;2022-07-23T01:13:49;17.60;91.60
8130;DHT22;4106;52.532;13.408;2022-07-23T01:16:17;17.50;91.70
8130;DHT22;4106;52.532;13.408;2022-07-23T01:18:44;17.50;92.10
8130;DHT22;4106;52.532;13.408;2022-07-23T01:21:12;17.40;92.30
8130;DHT22;4106;52.532;13.408;2022-07-23T01:23:38;17.40;92.60
8130;DHT22;4106;52.532;13.408;2022-07-23T01:26:06;17.30;92.90
8130;DHT22;4106;52.532;13.408;2022-07-23T01:28:34;17.30;93.00
8130;DHT22;4106;52.532;13.408;2022-07-23T01:31:02;17.20;93.00
8130;DHT22;4106;52.532;13.408;2022-07-23T01:33:30;17.20;93.40
8130;DHT22;4106;52.532;13.408;2022-07-23T01:35:57;17.20;93.40
8130;DHT22;4106;52.532;13.408;2022-07-23T01:38:24;17.20;93.40
8130;DHT22;4106;52.532;13.408;2022-07-23T01:40:52;17.20;93.60
8130;DHT22;4106;52.532;13.408;2022-07-23T01:43:19;17.20;93.70
8130;DHT22;4106;52.532;13.408;2022-07-23T01:45:46;17.20;93.80
8130;DHT22;4106;52.532;13.408;2022-07-23T01:48:13;17.20;93.90
8130;DHT22;4106;52.532;13.408;2022-07-23T01:50:40;17.10;94.00
8130;DHT22;4106;52.532;13.408;2022-07-23T01:53:08;17.10;93.80
8130;DHT22;4106;52.532;13.408;2022-07-23T01:55:35;17.20;93.70
8130;DHT22;4106;52.532;13.408;2022-07-23T01:58:03;17.20;93.80
8130;DHT22;4106;52.532;13.408;2022-07-23T02:00:31;17.20;93.70
8130;DHT22;4106;52.532;13.408;2022-07-23T02:02:59;17.20;93.30
8130;DHT22;4106;52.532;13.408;2022-07-23T02:05:27;17.30;93.30
8130;DHT22;4106;52.532;13.408;2022-07-23T02:07:54;17.30;93.30
8130;DHT22;4106;52.532;13.408;2022-07-23T02:10:21;17.40;93.10
8130;DHT22;4106;52.532;13.408;2022-07-23T02:12:49;17.40;93.00
8130;DHT22;4106;52.532;13.408;2022-07-23T02:15:17;17.40;92.80
8130;DHT22;4106;52.532;13.408;2022-07-23T02:17:45;17.40;93.00
8130;DHT22;4106;52.532;13.408;2022-07-23T02:20:13;17.40;92.80
8130;DHT22;4106;52.532;13.408;2022-07-23T02:22:40;17.40;92.80
8130;DHT22;4106;52.532;13.408;2022-07-23T02:25:07;17.40;92.60
8130;DHT22;4106;52.532;13.408;2022-07-23T02:27:35;17.40;92.60
8130;DHT22;4106;52.532;13.408;2022-07-23T02:30:02;17.40;92.60
8130;DHT22;4106;52.532;13.408;2022-07-23T02:32:30;17.30;92.70
8130;DHT22;4106;52.532;13.408;2022-07-23T02:34:58;17.20;92.90
8130;DHT22;4106;52.532;13.408;2022-07-23T02:37:25;17.20;92.90
8130;DHT22;4106;52.532;13.408;2022-07-23T02:39:52;17.30;92.90
8130;DHT22;4106;52.532;13.408;2022-07-23T02:42:19;17.20;93.10
8130;DHT22;4106;52.532;13.408;2022-07-23T02:44:46;17.10;93.00
8130;DHT22;4106;52.532;13.408;2022-07-23T02:47:14;17.10;93.40
8130;DHT22;4106;52.532;13.408;2022-07-23T02:49:41;17.00;93.70
8130;DHT22;4106;52.532;13.408;2022-07-23T02:52:09;16.80;94.30
8130;DHT22;4106;52.532;13.408;2022-07-23T02:54:38;16.80;94.80
8130;DHT22;4106;52.532;13.408;2022-07-23T02:57:05;16.70;94.50
8130;DHT22;4106;52.532;13.408;2022-07-23T02:59:32;16.70;94.80
8130;DHT22;4106;52.532;13.408;2022-07-23T03:01:59;16.70;95.00
8130;DHT22;4106;52.532;13.408;2022-07-23T03:04:26;16.70;95.20
8130;DHT22;4106;52.532;13.408;2022-07-23T03:06:54;16.70;95.20
8130;DHT22;4106;52.532;13.408;2022-07-23T03:09:21;16.70;95.20
8130;DHT22;4106;52.532;13.408;2022-07-23T03:11:48;16.80;95.30
8130;DHT22;4106;52.532;13.408;2022-07-23T03:14:15;16.80;95.20
8130;DHT22;4106;52.532;13.408;2022-07-23T03:16:42;16.80;94.90
8130;DHT22;4106;52.532;13.408;2022-07-23T03:19:10;16.80;94.80
8130;DHT22;4106;52.532;13.408;2022-07-23T03:21:37;16.80;94.40
8130;DHT22;4106;52.532;13.408;2022-07-23T03:24:05;16.70;94.40
8130;DHT22;4106;52.532;13.408;2022-07-23T03:26:32;16.70;94.50
8130;DHT22;4106;52.532;13.408;2022-07-23T03:28:59;16.70;94.40
8130;DHT22;4106;52.532;13.408;2022-07-23T03:31:26;16.60;94.60
8130;DHT22;4106;52.532;13.408;2022-07-23T03:33:54;16.60;94.70
8130;DHT22;4106;52.532;13.408;2022-07-23T03:36:22;16.50;94.80
8130;DHT22;4106;52.532;13.408;2022-07-23T03:38:50;16.50;94.80
8130;DHT22;4106;52.532;13.408;2022-07-23T03:41:17;16.50;94.90
8130;DHT22;4106;52.532;13.408;2022-07-23T03:43:44;16.50;94.80
8130;DHT22;4106;52.532;13.408;2022-07-23T03:46:11;16.60;94.70
8130;DHT22;4106;52.532;13.408;2022-07-23T03:48:38;16.50;94.70
8130;DHT22;4106;52.532;13.408;2022-07-23T03:51:06;16.60;94.60
8130;DHT22;4106;52.532;13.408;2022-07-23T03:53:33;16.60;94.30
8130;DHT22;4106;52.532;13.408;2022-07-23T03:56:00;16.50;94.20
8130;DHT22;4106;52.532;13.408;2022-07-23T03:58:27;16.60;93.90
8130;DHT22;4106;52.532;13.408;2022-07-23T04:00:54;16.50;93.60
8130;DHT22;4106;52.532;13.408;2022-07-23T04:03:22;16.50;93.40
8130;DHT22;4106;52.532;13.408;2022-07-23T04:05:49;16.50;92.80
8130;DHT22;4106;52.532;13.408;2022-07-23T04:08:16;16.60;92.40
8130;DHT22;4106;52.532;13.408;2022-07-23T04:10:43;16.70;91.70
8130;DHT22;4106;52.532;13.408;2022-07-23T04:13:11;16.70;91.00
8130;DHT22;4106;52.532;13.408;2022-07-23T04:15:39;16.70;90.90
8130;DHT22;4106;52.532;13.408;2022-07-23T04:18:07;16.70;90.50
8130;DHT22;4106;52.532;13.408;2022-07-23T04:20:35;16.70;90.50
8130;DHT22;4106;52.532;13.408;2022-07-23T04:23:02;16.70;90.50
8130;DHT22;4106;52.532;13.408;2022-07-23T04:25:29;16.70;90.60
8130;DHT22;4106;52.532;13.408;2022-07-23T04:27:56;16.80;90.20
8130;DHT22;4106;52.532;13.408;2022-07-23T04:30:24;17.00;89.00
8130;DHT22;4106;52.532;13.408;2022-07-23T04:32:52;16.90;87.30
8130;DHT22;4106;52.532;13.408;2022-07-23T04:35:20;16.90;88.10
8130;DHT22;4106;52.532;13.408;2022-07-23T04:37:48;17.00;87.50
8130;DHT22;4106;52.532;13.408;2022-07-23T04:40:15;16.90;87.40
8130;DHT22;4106;52.532;13.408;2022-07-23T04:42:42;16.90;90.60
8130;DHT22;4106;52.532;13.408;2022-07-23T04:45:10;16.60;94.90
8130;DHT22;4106;52.532;13.408;2022-07-23T04:47:38;16.20;95.00
8130;DHT22;4106;52.532;13.408;2022-07-23T04:50:06;16.10;97.40
8130;DHT22;4106;52.532;13.408;2022-07-23T04:52:33;16.10;97.60
8130;DHT22;4106;52.532;13.408;2022-07-23T04:55:01;16.20;96.40
8130;DHT22;4106;52.532;13.408;2022-07-23T04:57:28;16.10;96.20
8130;DHT22;4106;52.532;13.408;2022-07-23T04:59:55;16.10;96.60
8130;DHT22;4106;52.532;13.408;2022-07-23T05:02:22;16.10;98.30
8130;DHT22;4106;52.532;13.408;2022-07-23T05:04:49;16.10;97.90
8130;DHT22;4106;52.532;13.408;2022-07-23T05:07:16;16.20;98.40
8130;DHT22;4106;52.532;13.408;2022-07-23T05:09:44;16.10;98.30
8130;DHT22;4106;52.532;13.408;2022-07-23T05:12:12;16.20;98.90
8130;DHT22;4106;52.532;13.408;2022-07-23T05:14:40;16.20;99.10
8130;DHT22;4106;52.532;13.408;2022-07-23T05:17:08;16.20;99.00
8130;DHT22;4106;52.532;13.408;2022-07-23T05:19:36;16.20;99.10
8130;DHT22;4106;52.532;13.408;2022-07-23T05:22:04;16.30;99.90
8130;DHT22;4106;52.532;13.408;2022-07-23T05:24:31;16.30;99.90
8130;DHT22;4106;52.532;13.408;2022-07-23T05:26:58;16.30;98.90
8130;DHT22;4106;52.532;13.408;2022-07-23T05:29:25;16.30;99.90
8130;DHT22;4106;52.532;13.408;2022-07-23T05:31:53;16.40;99.90
8130;DHT22;4106;52.532;13.408;2022-07-23T05:34:20;16.50;99.90
8130;DHT22;4106;52.532;13.408;2022-07-23T05:36:47;16.50;99.40
8130;DHT22;4106;52.532;13.408;2022-07-23T05:39:14;16.50;99.40
8130;DHT22;4106;52.532;13.408;2022-07-23T05:41:41;16.50;99.90
8130;DHT22;4106;52.532;13.408;2022-07-23T05:44:09;16.60;99.70
8130;DHT22;4106;52.532;13.408;2022-07-23T05:46:36;16.60;99.30
8130;DHT22;4106;52.532;13.408;2022-07-23T05:49:03;16.70;99.90
8130;DHT22;4106;52.532;13.408;2022-07-23T05:51:31;16.60;99.90
8130;DHT22;4106;52.532;13.408;2022-07-23T05:53:59;16.70;99.90
8130;DHT22;4106;52.532;13.408;2022-07-23T05:56:27;16.70;99.90
8130;DHT22;4106;52.532;13.408;2022-07-23T05:58:55;16.70;99.90
8130;DHT22;4106;52.532;13.408;2022-07-23T06:01:22;16.60;99.90
8130;DHT22;4106;52.532;13.408;2022-07-23T06:03:49;16.60;99.90
8130;DHT22;4106;52.532;13.408;2022-07-23T06:06:16;16.60;99.90
8130;DHT22;4106;52.532;13.408;2022-07-23T06:08:43;16.60;99.90
8130;DHT22;4106;52.532;13.408;2022-07-23T06:11:11;16.50;99.90
8130;DHT22;4106;52.532;13.408;2022-07-23T06:13:38;16.40;99.90
8130;DHT22;4106;52.532;13.408;2022-07-23T06:16:05;16.40;99.90
8130;DHT22;4106;52.532;13.408;2022-07-23T06:18:33;16.40;99.90
8130;DHT22;4106;52.532;13.408;2022-07-23T06:21:00;16.50;99.90
8130;DHT22;4106;52.532;13.408;2022-07-23T06:23:28;16.50;99.90
8130;DHT22;4106;52.532;13.408;2022-07-23T06:25:56;16.50;99.90
8130;DHT22;4106;52.532;13.408;2022-07-23T06:28:24;16.50;99.90
8130;DHT22;4106;52.532;13.408;2022-07-23T06:30:51;16.60;99.90
8130;DHT22;4106;52.532;13.408;2022-07-23T06:33:18;16.60;99.90
8130;DHT22;4106;52.532;13.408;2022-07-23T06:35:45;16.60;99.90
8130;DHT22;4106;52.532;13.408;2022-07-23T06:38:12;16.70;99.90
8130;DHT22;4106;52.532;13.408;2022-07-23T06:40:40;16.90;99.90
8130;DHT22;4106;52.532;13.408;2022-07-23T06:43:08;16.90;99.90
8130;DHT22;4106;52.532;13.408;2022-07-23T06:45:36;16.90;99.90
8130;DHT22;4106;52.532;13.408;2022-07-23T06:48:03;17.00;99.90
8130;DHT22;4106;52.532;13.408;2022-07-23T06:50:31;16.90;99.90
8130;DHT22;4106;52.532;13.408;2022-07-23T06:52:58;16.90;99.90
8130;DHT22;4106;52.532;13.408;2022-07-23T06:55:25;16.90;99.90
8130;DHT22;4106;52.532;13.408;2022-07-23T06:57:53;17.10;99.90
8130;DHT22;4106;52.532;13.408;2022-07-23T07:00:21;17.20;99.90
8130;DHT22;4106;52.532;13.408;2022-07-23T07:02:49;17.20;99.90
8130;DHT22;4106;52.532;13.408;2022-07-23T07:05:16;17.20;99.90
8130;DHT22;4106;52.532;13.408;2022-07-23T07:07:44;17.20;99.90
8130;DHT22;4106;52.532;13.408;2022-07-23T07:10:11;17.30;99.90
8130;DHT22;4106;52.532;13.408;2022-07-23T07:12:39;17.40;99.90
8130;DHT22;4106;52.532;13.408;2022-07-23T07:15:08;17.50;99.90
8130;DHT22;4106;52.532;13.408;2022-07-23T07:17:35;17.50;99.90
8130;DHT22;4106;52.532;13.408;2022-07-23T07:20:03;17.60;99.90
8130;DHT22;4106;52.532;13.408;2022-07-23T07:22:30;17.90;99.90
8130;DHT22;4106;52.532;13.408;2022-07-23T07:24:58;18.10;99.90
8130;DHT22;4106;52.532;13.408;2022-07-23T07:27:26;18.20;99.90
8130;DHT22;4106;52.532;13.408;2022-07-23T07:29:54;18.30;99.40
8130;DHT22;4106;52.532;13.408;2022-07-23T07:32:23;18.20;99.90
8130;DHT22;4106;52.532;13.408;2022-07-23T07:34:51;18.20;99.90
8130;DHT22;4106;52.532;13.408;2022-07-23T07:37:18;18.20;99.90
8130;DHT22;4106;52.532;13.408;2022-07-23T07:39:46;18.40;99.90
8130;DHT22;4106;52.532;13.408;2022-07-23T07:42:13;18.60;99.40
8130;DHT22;4106;52.532;13.408;2022-07-23T07:44:41;18.60;99.00
8130;DHT22;4106;52.532;13.408;2022-07-23T07:47:08;18.70;98.90
8130;DHT22;4106;52.532;13.408;2022-07-23T07:49:36;18.70;99.20
8130;DHT22;4106;52.532;13.408;2022-07-23T07:52:03;18.50;98.20
8130;DHT22;4106;52.532;13.408;2022-07-23T07:54:31;18.60;98.90
8130;DHT22;4106;52.532;13.408;2022-07-23T07:56:59;18.50;97.80
8130;DHT22;4106;52.532;13.408;2022-07-23T07:59:26;18.50;97.90
8130;DHT22;4106;52.532;13.408;2022-07-23T08:01:53;18.30;99.00
8130;DHT22;4106;52.532;13.408;2022-07-23T08:04:25;18.50;99.30
8130;DHT22;4106;52.532;13.408;2022-07-23T08:06:52;18.40;98.60
8130;DHT22;4106;52.532;13.408;2022-07-23T08:09:20;18.50;99.10
8130;DHT22;4106;52.532;13.408;2022-07-23T08:11:48;18.50;99.10
8130;DHT22;4106;52.532;13.408;2022-07-23T08:14:15;18.60;98.30
8130;DHT22;4106;52.532;13.408;2022-07-23T08:16:42;18.90;96.40
8130;DHT22;4106;52.532;13.408;2022-07-23T08:19:10;19.20;96.30
8130;DHT22;4106;52.532;13.408;2022-07-23T08:21:37;19.40;95.70
8130;DHT22;4106;52.532;13.408;2022-07-23T08:24:04;19.40;94.20
8130;DHT22;4106;52.532;13.408;2022-07-23T08:26:32;19.20;95.00
8130;DHT22;4106;52.532;13.408;2022-07-23T08:28:59;19.50;94.70
8130;DHT22;4106;52.532;13.408;2022-07-23T08:31:26;19.90;94.80
8130;DHT22;4106;52.532;13.408;2022-07-23T08:33:53;20.10;93.70
8130;DHT22;4106;52.532;13.408;2022-07-23T08:36:21;20.20;91.50
8130;DHT22;4106;52.532;13.408;2022-07-23T08:38:48;20.00;90.70
8130;DHT22;4106;52.532;13.408;2022-07-23T08:41:15;19.80;91.20
8130;DHT22;4106;52.532;13.408;2022-07-23T08:43:43;19.40;91.00
8130;DHT22;4106;52.532;13.408;2022-07-23T08:46:11;19.40;91.90
8130;DHT22;4106;52.532;13.408;2022-07-23T08:48:38;19.70;91.80
8130;DHT22;4106;52.532;13.408;2022-07-23T08:51:07;19.80;90.50
8130;DHT22;4106;52.532;13.408;2022-07-23T08:53:35;20.10;90.00
8130;DHT22;4106;52.532;13.408;2022-07-23T08:56:05;19.50;87.90
8130;DHT22;4106;52.532;13.408;2022-07-23T08:58:31;19.50;88.00
8130;DHT22;4106;52.532;13.408;2022-07-23T09:00:59;19.30;88.50
8130;DHT22;4106;52.532;13.408;2022-07-23T09:03:29;19.30;89.00
8130;DHT22;4106;52.532;13.408;2022-07-23T09:05:57;19.30;89.80
8130;DHT22;4106;52.532;13.408;2022-07-23T09:08:25;19.40;88.10
8130;DHT22;4106;52.532;13.408;2022-07-23T09:10:57;19.30;88.00
8130;DHT22;4106;52.532;13.408;2022-07-23T09:13:31;19.40;86.60
8130;DHT22;4106;52.532;13.408;2022-07-23T09:16:17;19.70;87.00
8130;DHT22;4106;52.532;13.408;2022-07-23T09:18:47;20.20;85.80
8130;DHT22;4106;52.532;13.408;2022-07-23T09:21:30;20.20;85.80
8130;DHT22;4106;52.532;13.408;2022-07-23T09:24:05;20.20;83.60
8130;DHT22;4106;52.532;13.408;2022-07-23T09:26:42;20.20;83.80
8130;DHT22;4106;52.532;13.408;2022-07-23T09:29:12;20.00;83.20
8130;DHT22;4106;52.532;13.408;2022-07-23T09:34:21;20.20;84.00
8130;DHT22;4106;52.532;13.408;2022-07-23T09:36:48;20.20;84.00
8130;DHT22;4106;52.532;13.408;2022-07-23T09:39:21;20.30;83.00
8130;DHT22;4106;52.532;13.408;2022-07-23T09:41:44;20.30;82.90
8130;DHT22;4106;52.532;13.408;2022-07-23T09:44:17;20.20;81.20
8130;DHT22;4106;52.532;13.408;2022-07-23T09:46:44;20.30;81.30
8130;DHT22;4106;52.532;13.408;2022-07-23T09:49:11;20.60;79.80
8130;DHT22;4106;52.532;13.408;2022-07-23T09:51:44;20.50;79.90
8130;DHT22;4106;52.532;13.408;2022-07-23T09:54:20;20.60;79.60
8130;DHT22;4106;52.532;13.408;2022-07-23T09:56:37;20.80;78.70
8130;DHT22;4106;52.532;13.408;2022-07-23T09:59:05;21.10;77.90
8130;DHT22;4106;52.532;13.408;2022-07-23T10:01:33;20.90;77.20
8130;DHT22;4106;52.532;13.408;2022-07-23T10:04:01;21.60;76.40
8130;DHT22;4106;52.532;13.408;2022-07-23T10:06:28;21.70;74.20
8130;DHT22;4106;52.532;13.408;2022-07-23T10:08:57;21.90;73.60
8130;DHT22;4106;52.532;13.408;2022-07-23T10:11:24;22.10;72.00
8130;DHT22;4106;52.532;13.408;2022-07-23T10:13:52;22.00;71.90
8130;DHT22;4106;52.532;13.408;2022-07-23T10:16:19;22.30;70.90
8130;DHT22;4106;52.532;13.408;2022-07-23T10:18:46;22.40;69.20
8130;DHT22;4106;52.532;13.408;2022-07-23T10:21:16;22.00;69.30
8130;DHT22;4106;52.532;13.408;2022-07-23T10:23:51;22.10;68.70
8130;DHT22;4106;52.532;13.408;2022-07-23T10:26:24;22.00;67.60
8130;DHT22;4106;52.532;13.408;2022-07-23T10:29:02;22.10;68.90
8130;DHT22;4106;52.532;13.408;2022-07-23T10:31:41;22.00;68.20
8130;DHT22;4106;52.532;13.408;2022-07-23T10:34:17;21.80;67.60
8130;DHT22;4106;52.532;13.408;2022-07-23T10:36:53;21.80;68.70
8130;DHT22;4106;52.532;13.408;2022-07-23T10:39:26;21.80;68.70
8130;DHT22;4106;52.532;13.408;2022-07-23T10:42:12;22.10;67.80
8130;DHT22;4106;52.532;13.408;2022-07-23T10:44:43;21.50;67.30
8130;DHT22;4106;52.532;13.408;2022-07-23T10:47:10;21.50;67.40
8130;DHT22;4106;52.532;13.408;2022-07-23T10:49:53;21.70;68.30
8130;DHT22;4106;52.532;13.408;2022-07-23T10:52:21;21.70;67.80
8130;DHT22;4106;52.532;13.408;2022-07-23T10:54:50;21.70;67.60
8130;DHT22;4106;52.532;13.408;2022-07-23T10:57:16;21.80;67.40
8130;DHT22;4106;52.532;13.408;2022-07-23T11:00:11;21.90;66.70
8130;DHT22;4106;52.532;13.408;2022-07-23T11:02:38;21.90;66.30
8130;DHT22;4106;52.532;13.408;2022-07-23T11:05:05;22.10;66.90
8130;DHT22;4106;52.532;13.408;2022-07-23T11:07:33;22.40;65.20
8130;DHT22;4106;52.532;13.408;2022-07-23T11:10:00;22.30;64.70
8130;DHT22;4106;52.532;13.408;2022-07-23T11:12:35;22.10;64.40
8130;DHT22;4106;52.532;13.408;2022-07-23T11:15:03;21.90;65.20
8130;DHT22;4106;52.532;13.408;2022-07-23T11:17:30;22.10;64.90
8130;DHT22;4106;52.532;13.408;2022-07-23T11:20:12;22.30;63.70
8130;DHT22;4106;52.532;13.408;2022-07-23T11:22:47;22.70;63.20
8130;DHT22;4106;52.532;13.408;2022-07-23T11:25:36;23.00;62.20
8130;DHT22;4106;52.532;13.408;2022-07-23T11:28:10;23.40;60.40
8130;DHT22;4106;52.532;13.408;2022-07-23T11:30:37;23.50;59.70
8130;DHT22;4106;52.532;13.408;2022-07-23T11:33:21;23.80;59.80
8130;DHT22;4106;52.532;13.408;2022-07-23T11:35:49;23.80;59.20
8130;DHT22;4106;52.532;13.408;2022-07-23T11:38:18;23.70;59.10
8130;DHT22;4106;52.532;13.408;2022-07-23T11:40:46;23.80;59.00
8130;DHT22;4106;52.532;13.408;2022-07-23T11:43:11;24.00;59.20
8130;DHT22;4106;52.532;13.408;2022-07-23T11:45:42;24.50;58.40
8130;DHT22;4106;52.532;13.408;2022-07-23T11:48:09;24.60;58.00
8130;DHT22;4106;52.532;13.408;2022-07-23T11:50:36;24.80;57.40
8130;DHT22;4106;52.532;13.408;2022-07-23T11:53:02;25.30;57.20
8130;DHT22;4106;52.532;13.408;2022-07-23T11:55:30;24.70;56.40
8130;DHT22;4106;52.532;13.408;2022-07-23T11:57:57;24.70;56.80
8130;DHT22;4106;52.532;13.408;2022-07-23T12:00:26;24.90;56.30
8130;DHT22;4106;52.532;13.408;2022-07-23T12:02:54;25.30;55.80
8130;DHT22;4106;52.532;13.408;2022-07-23T12:05:23;25.30;55.40
8130;DHT22;4106;52.532;13.408;2022-07-23T12:07:50;25.30;55.60
8130;DHT22;4106;52.532;13.408;2022-07-23T12:10:20;25.60;54.50
8130;DHT22;4106;52.532;13.408;2022-07-23T12:12:55;25.60;54.50
8130;DHT22;4106;52.532;13.408;2022-07-23T12:15:23;25.30;54.00
8130;DHT22;4106;52.532;13.408;2022-07-23T12:17:49;25.00;54.60
8130;DHT22;4106;52.532;13.408;2022-07-23T12:20:17;25.20;54.50
8130;DHT22;4106;52.532;13.408;2022-07-23T12:22:44;25.30;53.80
8130;DHT22;4106;52.532;13.408;2022-07-23T12:25:17;25.30;53.80
8130;DHT22;4106;52.532;13.408;2022-07-23T12:27:43;25.80;53.60
8130;DHT22;4106;52.532;13.408;2022-07-23T12:30:24;25.70;53.00
8130;DHT22;4106;52.532;13.408;2022-07-23T12:32:51;25.60;53.50
8130;DHT22;4106;52.532;13.408;2022-07-23T12:35:18;25.90;52.60
8130;DHT22;4106;52.532;13.408;2022-07-23T12:37:46;26.00;52.40
8130;DHT22;4106;52.532;13.408;2022-07-23T12:40:20;26.10;52.70
8130;DHT22;4106;52.532;13.408;2022-07-23T12:42:48;26.10;51.50
8130;DHT22;4106;52.532;13.408;2022-07-23T12:45:15;25.90;51.90
8130;DHT22;4106;52.532;13.408;2022-07-23T12:47:50;25.90;51.90
8130;DHT22;4106;52.532;13.408;2022-07-23T12:53:04;25.10;52.30
8130;DHT22;4106;52.532;13.408;2022-07-23T12:55:32;25.10;52.20
8130;DHT22;4106;52.532;13.408;2022-07-23T12:58:04;25.10;52.20
8130;DHT22;4106;52.532;13.408;2022-07-23T13:00:31;25.50;52.10
8130;DHT22;4106;52.532;13.408;2022-07-23T13:02:58;25.90;51.30
8130;DHT22;4106;52.532;13.408;2022-07-23T13:05:25;26.40;50.80
8130;DHT22;4106;52.532;13.408;2022-07-23T13:07:52;26.10;50.50
8130;DHT22;4106;52.532;13.408;2022-07-23T13:10:19;25.80;51.10
8130;DHT22;4106;52.532;13.408;2022-07-23T13:12:47;25.60;51.10
8130;DHT22;4106;52.532;13.408;2022-07-23T13:15:14;27.10;50.60
8130;DHT22;4106;52.532;13.408;2022-07-23T13:17:42;27.80;49.20
8130;DHT22;4106;52.532;13.408;2022-07-23T13:20:11;28.60;48.30
8130;DHT22;4106;52.532;13.408;2022-07-23T13:22:38;28.60;48.30
8130;DHT22;4106;52.532;13.408;2022-07-23T13:25:06;31.40;45.30
8130;DHT22;4106;52.532;13.408;2022-07-23T13:27:34;31.30;45.20
8130;DHT22;4106;52.532;13.408;2022-07-23T13:30:01;31.80;42.80
8130;DHT22;4106;52.532;13.408;2022-07-23T13:32:28;31.50;42.20
8130;DHT22;4106;52.532;13.408;2022-07-23T13:34:55;31.80;42.80
8130;DHT22;4106;52.532;13.408;2022-07-23T13:37:22;31.70;41.40
8130;DHT22;4106;52.532;13.408;2022-07-23T13:39:50;30.90;41.90
8130;DHT22;4106;52.532;13.408;2022-07-23T13:42:17;30.40;42.20
8130;DHT22;4106;52.532;13.408;2022-07-23T13:44:44;31.40;40.90
8130;DHT22;4106;52.532;13.408;2022-07-23T13:47:12;33.00;39.40
8130;DHT22;4106;52.532;13.408;2022-07-23T13:49:40;31.50;40.60
8130;DHT22;4106;52.532;13.408;2022-07-23T13:52:08;30.20;42.00
8130;DHT22;4106;52.532;13.408;2022-07-23T13:54:35;30.10;42.00
8130;DHT22;4106;52.532;13.408;2022-07-23T13:57:03;29.00;43.10
8130;DHT22;4106;52.532;13.408;2022-07-23T13:59:30;28.10;44.30
8130;DHT22;4106;52.532;13.408;2022-07-23T14:01:57;27.80;44.70
8130;DHT22;4106;52.532;13.408;2022-07-23T14:04:24;27.60;45.10
8130;DHT22;4106;52.532;13.408;2022-07-23T14:06:52;29.30;44.60
8130;DHT22;4106;52.532;13.408;2022-07-23T14:09:20;34.70;40.30
8130;DHT22;4106;52.532;13.408;2022-07-23T14:11:48;37.50;36.10
8130;DHT22;4106;52.532;13.408;2022-07-23T14:14:16;40.20;33.50
8130;DHT22;4106;52.532;13.408;2022-07-23T14:16:44;37.30;33.20
8130;DHT22;4106;52.532;13.408;2022-07-23T14:19:11;37.20;32.70
8130;DHT22;4106;52.532;13.408;2022-07-23T14:21:38;33.60;35.60
8130;DHT22;4106;52.532;13.408;2022-07-23T14:24:07;30.40;39.10
8130;DHT22;4106;52.532;13.408;2022-07-23T14:26:34;32.40;40.20
8130;DHT22;4106;52.532;13.408;2022-07-23T14:29:01;36.80;34.10
8130;DHT22;4106;52.532;13.408;2022-07-23T14:31:28;32.30;36.10
8130;DHT22;4106;52.532;13.408;2022-07-23T14:33:55;29.70;39.30
8130;DHT22;4106;52.532;13.408;2022-07-23T14:36:24;28.60;40.90
8130;DHT22;4106;52.532;13.408;2022-07-23T14:38:50;28.00;41.90
8130;DHT22;4106;52.532;13.408;2022-07-23T14:41:17;29.30;40.10
8130;DHT22;4106;52.532;13.408;2022-07-23T14:43:45;27.60;42.50
8130;DHT22;4106;52.532;13.408;2022-07-23T14:46:14;27.10;43.00
8130;DHT22;4106;52.532;13.408;2022-07-23T14:48:42;32.30;38.20
8130;DHT22;4106;52.532;13.408;2022-07-23T14:51:10;34.40;35.60
8130;DHT22;4106;52.532;13.408;2022-07-23T14:53:38;31.40;37.10
8130;DHT22;4106;52.532;13.408;2022-07-23T14:56:05;31.40;37.10
8130;DHT22;4106;52.532;13.408;2022-07-23T14:58:32;30.20;38.30
8130;DHT22;4106;52.532;13.408;2022-07-23T15:00:59;28.60;40.00
8130;DHT22;4106;52.532;13.408;2022-07-23T15:03:27;27.40;41.60
8130;DHT22;4106;52.532;13.408;2022-07-23T15:05:54;30.00;39.50
8130;DHT22;4106;52.532;13.408;2022-07-23T15:08:21;29.00;39.80
8130;DHT22;4106;52.532;13.408;2022-07-23T15:10:49;28.60;40.30
8130;DHT22;4106;52.532;13.408;2022-07-23T15:13:16;28.10;40.20
8130;DHT22;4106;52.532;13.408;2022-07-23T15:15:43;26.90;41.70
8130;DHT22;4106;52.532;13.408;2022-07-23T15:18:11;28.10;40.20
8130;DHT22;4106;52.532;13.408;2022-07-23T15:20:38;27.40;41.30
8130;DHT22;4106;52.532;13.408;2022-07-23T15:23:05;27.30;41.50
8130;DHT22;4106;52.532;13.408;2022-07-23T15:25:32;27.40;41.70
8130;DHT22;4106;52.532;13.408;2022-07-23T15:28:00;26.50;42.50
8130;DHT22;4106;52.532;13.408;2022-07-23T15:30:27;26.30;43.20
8130;DHT22;4106;52.532;13.408;2022-07-23T15:32:54;26.10;42.70
8130;DHT22;4106;52.532;13.408;2022-07-23T15:35:21;25.90;43.60
8130;DHT22;4106;52.532;13.408;2022-07-23T15:37:49;25.30;43.60
8130;DHT22;4106;52.532;13.408;2022-07-23T15:40:17;25.30;44.10
8130;DHT22;4106;52.532;13.408;2022-07-23T15:42:45;25.70;44.00
8130;DHT22;4106;52.532;13.408;2022-07-23T15:45:13;26.00;42.90
8130;DHT22;4106;52.532;13.408;2022-07-23T15:47:41;25.60;42.80
8130;DHT22;4106;52.532;13.408;2022-07-23T15:50:09;25.60;42.80
8130;DHT22;4106;52.532;13.408;2022-07-23T15:52:36;25.60;42.80
8130;DHT22;4106;52.532;13.408;2022-07-23T15:55:03;25.60;43.00
8130;DHT22;4106;52.532;13.408;2022-07-23T15:57:31;25.40;43.50